createdAt,value
2022-12-17T00:00:06.996Z,100930.00
2022-12-17T00:02:53.471Z,100945.00
2022-12-17T00:05:39.929Z,100943.00
2022-12-17T00:08:27.494Z,100954.00
2022-12-17T00:11:16.161Z,100943.00
2022-12-17T00:14:02.434Z,100948.00
2022-12-17T00:16:48.813Z,100963.00
2022-12-17T00:19:35.417Z,100963.00
2022-12-17T00:22:21.902Z,100964.00
2022-12-17T00:25:08.090Z,100968.00
2022-12-17T00:27:54.559Z,100969.00
2022-12-17T00:30:40.825Z,100962.00
2022-12-17T00:33:27.517Z,100954.00
2022-12-17T00:36:14.616Z,100953.00
2022-12-17T00:39:01.186Z,100966.00
2022-12-17T00:41:47.421Z,100967.00
2022-12-17T00:44:36.123Z,100966.00
2022-12-17T00:47:22.507Z,100971.00
2022-12-17T00:50:08.772Z,100964.00
2022-12-17T00:52:55.044Z,100976.00
2022-12-17T00:55:42.573Z,100976.00
2022-12-17T00:58:28.693Z,100980.00
2022-12-17T01:01:19.713Z,100982.00
2022-12-17T01:04:05.872Z,100980.00
2022-12-17T01:06:52.534Z,100982.00
2022-12-17T01:09:40.519Z,100984.00
2022-12-17T01:12:27.075Z,100999.00
2022-12-17T01:15:13.857Z,100999.00
2022-12-17T01:18:00.010Z,101000.00
2022-12-17T01:20:46.494Z,101006.00
2022-12-17T01:23:34.723Z,101002.00
2022-12-17T01:26:42.543Z,101013.00
2022-12-17T01:29:29.210Z,101008.00
2022-12-17T01:32:15.576Z,101016.00
2022-12-17T01:35:03.296Z,101015.00
2022-12-17T01:37:49.785Z,101021.00
2022-12-17T01:40:36.120Z,101016.00
2022-12-17T01:43:24.915Z,101027.00
2022-12-17T01:46:11.118Z,101031.00
2022-12-17T01:49:01.169Z,101030.00
2022-12-17T01:51:47.813Z,101027.00
2022-12-17T01:54:34.791Z,101033.00
2022-12-17T01:57:22.658Z,101040.00
2022-12-17T02:00:23.099Z,101036.00
2022-12-17T02:03:13.963Z,101045.00
2022-12-17T02:06:27.626Z,101039.00
2022-12-17T02:09:37.041Z,101046.00
2022-12-17T02:12:45.574Z,101038.00
2022-12-17T02:15:34.656Z,101046.00
2022-12-17T02:18:24.327Z,101049.00
2022-12-17T02:21:11.994Z,101040.00
2022-12-17T02:24:01.840Z,101047.00
2022-12-17T02:26:58.215Z,101046.00
2022-12-17T02:29:47.378Z,101037.00
2022-12-17T02:32:34.474Z,101046.00
2022-12-17T02:35:23.940Z,101046.00
2022-12-17T02:38:10.185Z,101048.00
2022-12-17T02:40:57.481Z,101048.00
2022-12-17T02:43:44.862Z,101049.00
2022-12-17T02:46:32.242Z,101042.00
2022-12-17T02:49:19.379Z,101044.00
2022-12-17T02:52:06.626Z,101052.00
2022-12-17T02:54:56.008Z,101053.00
2022-12-17T02:57:44.115Z,101063.00
2022-12-17T03:00:33.313Z,101053.00
2022-12-17T03:03:19.731Z,101053.00
2022-12-17T03:06:06.510Z,101055.00
2022-12-17T03:08:53.315Z,101058.00
2022-12-17T03:11:39.506Z,101074.00
2022-12-17T03:14:33.190Z,101068.00
2022-12-17T03:17:20.004Z,101077.00
2022-12-17T03:20:06.317Z,101083.00
2022-12-17T03:22:52.373Z,101082.00
2022-12-17T03:25:38.679Z,101082.00
2022-12-17T03:28:30.058Z,101083.00
2022-12-17T03:31:19.927Z,101083.00
2022-12-17T03:34:06.079Z,101091.00
2022-12-17T03:36:52.347Z,101080.00
2022-12-17T03:39:38.599Z,101093.00
2022-12-17T03:42:25.057Z,101090.00
2022-12-17T03:45:11.215Z,101084.00
2022-12-17T03:47:57.470Z,101087.00
2022-12-17T03:50:43.574Z,101091.00
2022-12-17T03:53:30.006Z,101095.00
2022-12-17T03:56:16.288Z,101100.00
2022-12-17T03:59:02.615Z,101092.00
2022-12-17T04:01:54.161Z,101103.00
2022-12-17T04:04:40.547Z,101099.00
2022-12-17T04:07:26.682Z,101113.00
2022-12-17T04:10:12.838Z,101102.00
2022-12-17T04:12:59.263Z,101106.00
2022-12-17T04:15:45.450Z,101102.00
2022-12-17T04:18:31.725Z,101108.00
2022-12-17T04:21:17.917Z,101107.00
2022-12-17T04:24:04.207Z,101109.00
2022-12-17T04:26:50.561Z,101115.00
2022-12-17T04:29:37.294Z,101120.00
2022-12-17T04:32:23.678Z,101120.00
2022-12-17T04:35:10.357Z,101119.00
2022-12-17T04:37:56.753Z,101122.00
2022-12-17T04:40:43.041Z,101121.00
2022-12-17T04:43:31.066Z,101129.00
2022-12-17T04:46:17.960Z,101121.00
2022-12-17T04:49:04.189Z,101129.00
2022-12-17T04:51:50.794Z,101133.00
2022-12-17T04:54:37.285Z,101133.00
2022-12-17T04:57:23.529Z,101140.00
2022-12-17T05:00:12.791Z,101131.00
2022-12-17T05:02:59.333Z,101139.00
2022-12-17T05:05:45.611Z,101139.00
2022-12-17T05:08:34.558Z,101143.00
2022-12-17T05:11:23.895Z,101146.00
2022-12-17T05:14:10.517Z,101144.00
2022-12-17T05:16:56.799Z,101147.00
2022-12-17T05:19:42.891Z,101148.00
2022-12-17T05:22:29.244Z,101148.00
2022-12-17T05:25:15.320Z,101143.00
2022-12-17T05:28:01.587Z,101156.00
2022-12-17T05:30:47.866Z,101162.00
2022-12-17T05:33:34.392Z,101166.00
2022-12-17T05:36:21.701Z,101162.00
2022-12-17T05:39:08.484Z,101164.00
2022-12-17T05:41:54.811Z,101155.00
2022-12-17T05:44:41.227Z,101159.00
2022-12-17T05:47:30.979Z,101169.00
2022-12-17T05:50:17.276Z,101170.00
2022-12-17T05:53:03.647Z,101172.00
2022-12-17T05:55:50.019Z,101174.00
2022-12-17T05:58:36.407Z,101169.00
2022-12-17T06:01:24.035Z,101175.00
2022-12-17T06:04:10.763Z,101181.00
2022-12-17T06:06:57.130Z,101178.00
2022-12-17T06:09:43.250Z,101189.00
2022-12-17T06:12:29.818Z,101180.00
2022-12-17T06:15:16.355Z,101184.00
2022-12-17T06:18:15.085Z,101195.00
2022-12-17T06:21:03.501Z,101192.00
2022-12-17T06:23:49.742Z,101190.00
2022-12-17T06:26:36.475Z,101201.00
2022-12-17T06:29:23.163Z,101201.00
2022-12-17T06:32:09.375Z,101204.00
2022-12-17T06:34:55.888Z,101211.00
2022-12-17T06:37:42.260Z,101205.00
2022-12-17T06:40:28.946Z,101216.00
2022-12-17T06:43:15.941Z,101214.00
2022-12-17T06:46:02.122Z,101219.00
2022-12-17T06:48:48.493Z,101229.00
2022-12-17T06:51:34.940Z,101227.00
2022-12-17T06:54:21.455Z,101233.00
2022-12-17T06:57:07.988Z,101235.00
2022-12-17T06:59:54.265Z,101232.00
2022-12-17T07:02:40.909Z,101244.00
2022-12-17T07:05:27.595Z,101250.00
2022-12-17T07:08:18.497Z,101249.00
2022-12-17T07:11:05.394Z,101253.00
2022-12-17T07:13:54.927Z,101254.00
2022-12-17T07:16:41.396Z,101262.00
2022-12-17T07:19:27.948Z,101266.00
2022-12-17T07:22:14.604Z,101267.00
2022-12-17T07:25:01.749Z,101276.00
2022-12-17T07:27:48.135Z,101277.00
2022-12-17T07:30:34.989Z,101280.00
2022-12-17T07:33:26.826Z,101291.00
2022-12-17T07:36:13.923Z,101289.00
2022-12-17T07:39:00.681Z,101299.00
2022-12-17T07:42:01.087Z,101308.00
2022-12-17T07:44:47.344Z,101311.00
2022-12-17T07:47:33.576Z,101308.00
2022-12-17T07:50:20.010Z,101325.00
2022-12-17T07:53:06.362Z,101322.00
2022-12-17T07:55:52.492Z,101329.00
2022-12-17T07:58:38.605Z,101333.00
2022-12-17T08:01:24.766Z,101335.00
2022-12-17T08:04:11.350Z,101332.00
2022-12-17T08:07:02.869Z,101340.00
2022-12-17T08:09:51.721Z,101330.00
2022-12-17T08:12:37.920Z,101330.00
2022-12-17T08:15:25.241Z,101342.00
2022-12-17T08:18:11.714Z,101334.00
2022-12-17T08:20:58.138Z,101340.00
2022-12-17T08:23:44.498Z,101339.00
2022-12-17T08:26:30.522Z,101347.00
2022-12-17T08:29:17.022Z,101347.00
2022-12-17T08:32:03.504Z,101343.00
2022-12-17T08:34:49.921Z,101352.00
2022-12-17T08:37:36.178Z,101347.00
2022-12-17T08:40:23.391Z,101351.00
2022-12-17T08:43:16.708Z,101359.00
2022-12-17T08:46:07.883Z,101362.00
2022-12-17T08:48:54.115Z,101363.00
2022-12-17T08:51:41.780Z,101361.00
2022-12-17T08:54:29.010Z,101373.00
2022-12-17T08:57:30.481Z,101374.00
2022-12-17T09:00:17.963Z,101378.00
2022-12-17T09:03:04.769Z,101388.00
2022-12-17T09:05:51.391Z,101382.00
2022-12-17T09:08:37.774Z,101380.00
2022-12-17T09:11:24.258Z,101395.00
2022-12-17T09:14:10.381Z,101396.00
2022-12-17T09:16:56.755Z,101391.00
2022-12-17T09:19:43.290Z,101391.00
2022-12-17T09:22:29.834Z,101402.00
2022-12-17T09:25:16.021Z,101407.00
2022-12-17T09:28:02.563Z,101405.00
2022-12-17T09:30:48.895Z,101414.00
2022-12-17T09:33:36.539Z,101402.00
2022-12-17T09:36:24.696Z,101410.00
2022-12-17T09:39:11.323Z,101412.00
2022-12-17T09:42:32.154Z,101421.00
2022-12-17T09:45:31.315Z,101421.00
2022-12-17T09:48:36.602Z,101416.00
2022-12-17T09:51:23.095Z,101420.00
2022-12-17T09:54:11.163Z,101418.00
2022-12-17T09:56:58.764Z,101416.00
2022-12-17T09:59:52.287Z,101427.00
2022-12-17T10:02:44.320Z,101434.00
2022-12-17T10:05:49.448Z,101431.00
2022-12-17T10:08:38.547Z,101440.00
2022-12-17T10:11:46.607Z,101436.00
2022-12-17T10:14:41.693Z,101442.00
2022-12-17T10:17:41.961Z,101438.00
2022-12-17T10:21:16.914Z,101434.00
2022-12-17T10:24:03.733Z,101440.00
2022-12-17T10:26:52.701Z,101440.00
2022-12-17T10:29:47.426Z,101429.00
2022-12-17T10:32:34.682Z,101443.00
2022-12-17T10:38:45.598Z,101435.00
2022-12-17T10:41:40.957Z,101446.00
2022-12-17T10:44:52.477Z,101441.00
2022-12-17T10:47:40.859Z,101444.00
2022-12-17T10:50:35.812Z,101456.00
2022-12-17T10:53:23.910Z,101458.00
2022-12-17T10:56:15.561Z,101452.00
2022-12-17T10:59:08.514Z,101457.00
2022-12-17T11:01:55.800Z,101452.00
2022-12-17T11:04:50.901Z,101447.00
2022-12-17T11:07:39.618Z,101454.00
2022-12-17T11:10:33.343Z,101453.00
2022-12-17T11:13:22.943Z,101438.00
2022-12-17T11:16:15.534Z,101451.00
2022-12-17T11:19:19.613Z,101448.00
2022-12-17T11:22:13.147Z,101448.00
2022-12-17T11:25:11.084Z,101454.00
2022-12-17T11:28:05.193Z,101461.00
2022-12-17T11:31:05.838Z,101464.00
2022-12-17T11:34:16.273Z,101463.00
2022-12-17T11:37:10.186Z,101458.00
2022-12-17T11:40:31.710Z,101464.00
2022-12-17T11:43:31.918Z,101460.00
2022-12-17T11:46:51.565Z,101465.00
2022-12-17T11:49:49.864Z,101477.00
2022-12-17T11:52:48.196Z,101482.00
2022-12-17T11:55:55.942Z,101479.00
2022-12-17T11:58:52.955Z,101481.00
2022-12-17T12:01:43.232Z,101484.00
2022-12-17T12:05:11.124Z,101494.00
2022-12-17T12:08:15.054Z,101494.00
2022-12-17T12:11:19.071Z,101490.00
2022-12-17T12:14:30.871Z,101493.00
2022-12-17T12:17:18.826Z,101495.00
2022-12-17T12:20:18.770Z,101493.00
2022-12-17T12:23:13.119Z,101491.00
2022-12-17T12:26:05.347Z,101487.00
2022-12-17T12:29:17.578Z,101494.00
2022-12-17T12:32:16.903Z,101483.00
2022-12-17T12:35:03.813Z,101488.00
2022-12-17T12:37:50.636Z,101487.00
2022-12-17T12:41:07.933Z,101494.00
2022-12-17T12:43:55.995Z,101494.00
2022-12-17T12:47:21.684Z,101493.00
2022-12-17T12:50:24.509Z,101496.00
2022-12-17T12:53:10.690Z,101488.00
2022-12-17T12:55:58.831Z,101492.00
2022-12-17T12:58:48.078Z,101485.00
2022-12-17T13:01:34.789Z,101495.00
2022-12-17T13:04:34.160Z,101493.00
2022-12-17T13:07:02.312Z,101483.00
2022-12-17T13:09:37.397Z,101494.00
2022-12-17T13:12:05.466Z,101501.00
2022-12-17T13:15:07.360Z,101490.00
2022-12-17T13:17:40.841Z,101494.00
2022-12-17T13:20:24.493Z,101497.00
2022-12-17T13:23:11.925Z,101493.00
2022-12-17T13:25:39.821Z,101490.00
2022-12-17T13:28:31.214Z,101494.00
2022-12-17T13:31:07.114Z,101503.00
2022-12-17T13:34:06.943Z,101500.00
2022-12-17T13:36:58.905Z,101513.00
2022-12-17T13:39:52.537Z,101517.00
2022-12-17T13:42:30.104Z,101514.00
2022-12-17T13:44:59.027Z,101515.00
2022-12-17T13:47:32.565Z,101516.00
2022-12-17T13:52:50.441Z,101528.00
2022-12-17T13:55:29.809Z,101538.00
2022-12-17T13:57:58.285Z,101539.00
2022-12-17T14:00:28.706Z,101533.00
2022-12-17T14:03:10.941Z,101540.00
2022-12-17T14:05:42.634Z,101544.00
2022-12-17T14:08:15.762Z,101550.00
2022-12-17T14:10:52.169Z,101554.00
2022-12-17T14:13:20.076Z,101551.00
2022-12-17T14:15:50.274Z,101552.00
2022-12-17T14:18:20.466Z,101558.00
2022-12-17T14:20:48.837Z,101562.00
2022-12-17T14:23:24.457Z,101561.00
2022-12-17T14:25:52.435Z,101565.00
2022-12-17T14:28:32.955Z,101566.00
2022-12-17T14:31:27.882Z,101565.00
2022-12-17T14:34:11.460Z,101570.00
2022-12-17T14:36:44.184Z,101570.00
2022-12-17T14:39:31.444Z,101574.00
2022-12-17T14:42:25.879Z,101569.00
2022-12-17T14:45:00.142Z,101577.00
2022-12-17T14:47:31.950Z,101580.00
2022-12-17T14:50:10.558Z,101572.00
2022-12-17T14:52:57.464Z,101576.00
2022-12-17T14:55:34.649Z,101576.00
2022-12-17T14:58:15.050Z,101573.00
2022-12-17T15:00:51.514Z,101576.00
2022-12-17T15:03:28.481Z,101581.00
2022-12-17T15:06:03.087Z,101581.00
2022-12-17T15:08:46.433Z,101577.00
2022-12-17T15:11:16.627Z,101577.00
2022-12-17T15:13:44.644Z,101573.00
2022-12-17T15:16:12.526Z,101577.00
2022-12-17T15:18:40.966Z,101577.00
2022-12-17T15:21:12.944Z,101568.00
2022-12-17T15:23:41.538Z,101567.00
2022-12-17T15:26:10.973Z,101573.00
2022-12-17T15:28:39.270Z,101570.00
2022-12-17T15:31:08.707Z,101575.00
2022-12-17T15:33:36.843Z,101578.00
2022-12-17T15:36:05.069Z,101587.00
2022-12-17T15:38:32.975Z,101585.00
2022-12-17T15:41:01.983Z,101586.00
2022-12-17T15:43:30.419Z,101593.00
2022-12-17T15:46:01.814Z,101586.00
2022-12-17T15:48:29.692Z,101595.00
2022-12-17T15:50:57.414Z,101601.00
2022-12-17T15:53:25.385Z,101591.00
2022-12-17T15:56:03.559Z,101596.00
2022-12-17T15:58:31.800Z,101592.00
2022-12-17T16:00:59.754Z,101590.00
2022-12-17T16:03:27.545Z,101588.00
2022-12-17T16:05:55.425Z,101585.00
2022-12-17T16:08:23.481Z,101595.00
2022-12-17T16:10:52.328Z,101590.00
2022-12-17T16:13:20.138Z,101591.00
2022-12-17T16:15:58.317Z,101588.00
2022-12-17T16:18:29.933Z,101596.00
2022-12-17T16:21:03.517Z,101595.00
2022-12-17T16:23:31.717Z,101591.00
2022-12-17T16:26:02.175Z,101593.00
2022-12-17T16:28:30.855Z,101594.00
2022-12-17T16:31:03.947Z,101597.00
2022-12-17T16:33:36.388Z,101595.00
2022-12-17T16:36:05.465Z,101589.00
2022-12-17T16:38:33.909Z,101597.00
2022-12-17T16:41:03.496Z,101597.00
2022-12-17T16:43:36.106Z,101593.00
2022-12-17T16:46:09.127Z,101599.00
2022-12-17T16:48:40.526Z,101603.00
2022-12-17T16:51:28.170Z,101599.00
2022-12-17T16:53:57.459Z,101607.00
2022-12-17T16:56:28.138Z,101609.00
2022-12-17T16:58:56.791Z,101602.00
2022-12-17T17:01:27.428Z,101619.00
2022-12-17T17:03:55.847Z,101613.00
2022-12-17T17:06:26.788Z,101607.00
2022-12-17T17:08:58.087Z,101616.00
2022-12-17T17:11:26.739Z,101621.00
2022-12-17T17:13:55.376Z,101613.00
2022-12-17T17:16:24.748Z,101620.00
2022-12-17T17:18:53.506Z,101609.00
2022-12-17T17:21:23.555Z,101620.00
2022-12-17T17:23:59.999Z,101625.00
2022-12-17T17:26:32.368Z,101627.00
2022-12-17T17:29:00.772Z,101628.00
2022-12-17T17:32:01.276Z,101630.00
2022-12-17T17:34:16.965Z,101630.00
2022-12-17T17:36:44.897Z,101635.00
2022-12-17T17:39:12.659Z,101635.00
2022-12-17T17:41:40.595Z,101634.00
2022-12-17T17:44:11.103Z,101640.00
2022-12-17T17:46:39.297Z,101651.00
2022-12-17T17:49:08.484Z,101649.00
2022-12-17T17:52:08.411Z,101662.00
2022-12-17T17:54:26.862Z,101658.00
2022-12-17T17:56:54.710Z,101654.00
2022-12-17T17:59:30.857Z,101657.00
2022-12-17T18:01:59.087Z,101666.00
2022-12-17T18:04:27.093Z,101663.00
2022-12-17T18:09:42.702Z,101665.00
2022-12-17T18:12:29.397Z,101668.00
2022-12-17T18:15:13.636Z,101665.00
2022-12-17T18:17:42.786Z,101665.00
2022-12-17T18:20:11.131Z,101674.00
2022-12-17T18:22:39.118Z,101668.00
2022-12-17T18:25:07.218Z,101669.00
2022-12-17T18:27:35.063Z,101685.00
2022-12-17T18:30:04.511Z,101682.00
2022-12-17T18:32:32.352Z,101681.00
2022-12-17T18:35:00.286Z,101683.00
2022-12-17T18:37:28.080Z,101689.00
2022-12-17T18:39:55.730Z,101693.00
2022-12-17T18:42:41.937Z,101688.00
2022-12-17T18:45:09.842Z,101690.00
2022-12-17T18:47:37.555Z,101680.00
2022-12-17T18:50:06.029Z,101682.00
2022-12-17T18:52:33.804Z,101691.00
2022-12-17T18:55:01.679Z,101686.00
2022-12-17T18:57:29.511Z,101694.00
2022-12-17T18:59:57.436Z,101703.00
2022-12-17T19:02:25.425Z,101705.00
2022-12-17T19:04:53.325Z,101704.00
2022-12-17T19:07:21.060Z,101714.00
2022-12-17T19:09:48.792Z,101711.00
2022-12-17T19:12:16.727Z,101711.00
2022-12-17T19:14:44.667Z,101721.00
2022-12-17T19:17:12.500Z,101726.00
2022-12-17T19:19:42.320Z,101717.00
2022-12-17T19:22:10.196Z,101727.00
2022-12-17T19:24:38.094Z,101721.00
2022-12-17T19:27:05.976Z,101717.00
2022-12-17T19:29:33.876Z,101715.00
2022-12-17T19:32:01.717Z,101724.00
2022-12-17T19:34:29.717Z,101721.00
2022-12-17T19:36:57.445Z,101731.00
2022-12-17T19:39:25.366Z,101720.00
2022-12-17T19:41:55.056Z,101726.00
2022-12-17T19:44:23.213Z,101727.00
2022-12-17T19:46:51.027Z,101729.00
2022-12-17T19:49:18.792Z,101730.00
2022-12-17T19:51:46.635Z,101734.00
2022-12-17T19:54:17.854Z,101735.00
2022-12-17T19:56:46.142Z,101749.00
2022-12-17T19:59:14.739Z,101743.00
2022-12-17T20:01:44.609Z,101745.00
2022-12-17T20:04:16.647Z,101741.00
2022-12-17T20:06:44.632Z,101736.00
2022-12-17T20:09:13.083Z,101736.00
2022-12-17T20:11:41.481Z,101745.00
2022-12-17T20:14:11.630Z,101742.00
2022-12-17T20:16:41.487Z,101746.00
2022-12-17T20:19:15.167Z,101740.00
2022-12-17T20:21:43.509Z,101743.00
2022-12-17T20:24:12.456Z,101737.00
2022-12-17T20:26:40.759Z,101752.00
2022-12-17T20:29:09.521Z,101743.00
2022-12-17T20:31:38.116Z,101753.00
2022-12-17T20:34:09.848Z,101750.00
2022-12-17T20:36:38.706Z,101750.00
2022-12-17T20:39:06.787Z,101748.00
2022-12-17T20:41:36.581Z,101750.00
2022-12-17T20:44:09.550Z,101746.00
2022-12-17T20:46:37.821Z,101746.00
2022-12-17T20:49:06.266Z,101746.00
2022-12-17T20:51:34.518Z,101740.00
2022-12-17T20:54:03.496Z,101743.00
2022-12-17T20:56:33.825Z,101750.00
2022-12-17T20:59:07.643Z,101750.00
2022-12-17T21:01:36.920Z,101741.00
2022-12-17T21:04:07.687Z,101751.00
2022-12-17T21:06:47.623Z,101745.00
2022-12-17T21:09:16.204Z,101754.00
2022-12-17T21:11:44.269Z,101762.00
2022-12-17T21:14:15.248Z,101763.00
2022-12-17T21:16:44.137Z,101773.00
2022-12-17T21:19:17.673Z,101775.00
2022-12-17T21:21:46.063Z,101775.00
2022-12-17T21:24:13.979Z,101785.00
2022-12-17T21:26:43.487Z,101786.00
2022-12-17T21:29:11.813Z,101777.00
2022-12-17T21:31:47.196Z,101784.00
2022-12-17T21:34:17.592Z,101779.00
2022-12-17T21:36:46.448Z,101787.00
2022-12-17T21:39:15.650Z,101786.00
2022-12-17T21:42:04.970Z,101782.00
2022-12-17T21:44:32.684Z,101782.00
2022-12-17T21:47:00.688Z,101785.00
2022-12-17T21:49:28.478Z,101794.00
2022-12-17T21:51:59.427Z,101799.00
2022-12-17T21:54:27.349Z,101802.00
2022-12-17T21:56:55.332Z,101808.00
2022-12-17T21:59:23.342Z,101806.00
2022-12-17T22:01:51.750Z,101802.00
2022-12-17T22:04:22.323Z,101803.00
2022-12-17T22:06:59.948Z,101807.00
2022-12-17T22:10:00.901Z,101806.00
2022-12-17T22:12:41.676Z,101821.00
2022-12-17T22:15:11.259Z,101823.00
2022-12-17T22:17:41.449Z,101811.00
2022-12-17T22:20:10.009Z,101820.00
2022-12-17T22:22:37.826Z,101814.00
2022-12-17T22:25:09.548Z,101828.00
2022-12-17T22:27:39.268Z,101826.00
2022-12-17T22:30:26.852Z,101823.00
2022-12-17T22:33:00.281Z,101837.00
2022-12-17T22:37:35.245Z,101827.00
2022-12-17T22:42:41.477Z,101825.00
2022-12-17T22:44:29.741Z,101819.00
2022-12-17T22:44:36.379Z,101826.00
2022-12-17T22:47:08.430Z,101827.00
2022-12-17T22:49:36.202Z,101826.00
2022-12-17T22:52:03.868Z,101826.00
2022-12-17T22:54:31.961Z,101831.00
2022-12-17T22:57:34.676Z,101823.00
2022-12-17T22:59:47.772Z,101822.00
2022-12-17T23:02:15.538Z,101830.00
2022-12-17T23:04:43.455Z,101827.00
2022-12-17T23:07:11.164Z,101833.00
2022-12-17T23:09:39.363Z,101831.00
2022-12-17T23:12:26.269Z,101839.00
2022-12-17T23:14:54.063Z,101830.00
2022-12-17T23:17:21.906Z,101831.00
2022-12-17T23:19:49.741Z,101838.00
2022-12-17T23:22:22.034Z,101835.00
2022-12-17T23:24:50.247Z,101831.00
2022-12-17T23:27:17.979Z,101828.00
2022-12-17T23:29:45.680Z,101826.00
2022-12-17T23:32:13.489Z,101824.00
2022-12-17T23:34:41.637Z,101844.00
2022-12-17T23:37:09.927Z,101838.00
2022-12-17T23:39:37.897Z,101830.00
2022-12-17T23:42:05.777Z,101826.00
2022-12-17T23:44:33.595Z,101828.00
2022-12-17T23:47:01.453Z,101823.00
2022-12-17T23:49:29.138Z,101824.00
2022-12-17T23:51:56.775Z,101828.00
2022-12-17T23:54:24.928Z,101821.00
2022-12-17T23:56:54.835Z,101828.00
2022-12-17T23:59:22.840Z,101817.00
